ADDS METAR Data INFO
IDs: Format: Raw Decoded Include TAF

Data at: 1956 UTC 18 Feb 2018

KMER 181945Z 33013KT 10SM SKC 17/04 A2996
KMER 181845Z 33020KT 8SM SKC 16/06 A2998
KMER 181745Z 33020KT 8SM SKC 14/06 A2998
KMER 181645Z 36015KT 8SM FEW100 12/07 A2998
KMER 181545Z 33007KT 8SM FEW100 06/04 A2997
KMER 181445Z 00000KT 8SM FEW100 02/02 A2995
KMER 181355Z AUTO 00000KT 10SM CLR 02/01 A2997 RMK AO1
KMER 181335Z AUTO 00000KT 9SM CLR 03/02 A2997 RMK AO1
KMER 181315Z AUTO 00000KT 10SM CLR 03/02 A2996 RMK AO1
KMER 181255Z AUTO 00000KT 10SM 04/02 A2996 RMK AO1
KMER 181235Z AUTO 00000KT 10SM CLR 04/02 A2995 RMK AO1
KMER 181215Z AUTO 00000KT 10SM CLR 04/02 A2995 RMK AO1
KMER 181155Z AUTO 13003KT 10SM CLR 05/02 A2995 RMK AO1
KMER 181135Z AUTO 00000KT 10SM CLR 05/03 A2996 RMK AO1
KMER 181115Z AUTO 00000KT 10SM FEW110 06/03 A2997 RMK AO1
KMER 181055Z AUTO 00000KT 10SM SCT110 06/03 A2997 RMK AO1
KMER 181035Z AUTO 00000KT 10SM FEW110 06/03 A2997 RMK AO1
KMER 181015Z AUTO 11003KT 10SM CLR 05/03 A2997 RMK AO1
KMER 180955Z AUTO 11004KT 10SM CLR 06/03 A2998 RMK AO1
KMER 180935Z AUTO 15003KT 10SM CLR 06/03 A2998 RMK AO1
KMER 180915Z AUTO 08006KT 10SM CLR 06/03 A2998 RMK AO1
KMER 180855Z AUTO 10003KT 10SM CLR 06/03 A2999 RMK AO1
KMER 180835Z AUTO 07005KT 10SM CLR 05/03 A3000 RMK AO1
KMER 180815Z AUTO 10003KT 10SM CLR 05/02 A3000 RMK AO1
KMER 180755Z AUTO 00000KT 10SM CLR 06/02 A3001 RMK AO1
KMER 180735Z AUTO 10003KT 10SM CLR 06/03 A3001 RMK AO1
KMER 180715Z AUTO 00000KT 10SM CLR 06/03 A3001 RMK AO1
KMER 180655Z AUTO 07003KT 9SM CLR 06/02 A3001 RMK AO1
KMER 180635Z AUTO 00000KT 10SM CLR 06/02 A3001 RMK AO1
KMER 180615Z AUTO 11003KT 10SM CLR 06/02 A3001 RMK AO1
KMER 180555Z AUTO 00000KT 10SM CLR 07/03 A3001 RMK AO1
KMER 180535Z AUTO 00000KT 10SM CLR 07/03 A3002 RMK AO1
KMER 180515Z AUTO 00000KT 10SM CLR 08/02 A3002 RMK AO1
KMER 180445Z 00000KT 8SM SKC 09/02 A3002
KMER 180345Z 00000KT 8SM SKC 10/01 A3003
KMER 180245Z 00000KT 8SM SKC 16/-01 A3003
KMER 180145Z 00000KT 8SM SKC 17/00 A3004
KMER 180045Z 00000KT 10SM SKC 22/-01 A3005
KMER 172345Z 00000KT 10SM SKC 23/-01 A3006
KMER 172245Z 00000KT 10SM SKC 22/-01 A3008
KMER 172145Z 00000KT 10SM SKC 22/00 A3011
KMER 172045Z VRB04KT 10SM SKC 21/01 A3013
KMER 171945Z VRB04KT 10SM SKC 19/01 A3015
KMER 171850Z 00000KT 10SM SKC 17/02 A3017
KMER 171750Z 00000KT 10SM SKC 13/03 A3019
KMER 171650Z 00000KT 10SM SKC 10/04 A3019
KMER 171545Z 00000KT 10SM SKC 04/03 A3018
KMER 171445Z 00000KT 10SM SKC 01/00 A3017
KMER 171355Z AUTO 11003KT 10SM CLR 02/01 A3016 RMK AO1
KMER 171335Z AUTO 08003KT 9SM CLR 01/01 A3016 RMK AO1
KMER 171315Z AUTO 00000KT 10SM CLR 02/01 A3016 RMK AO1
KMER 171255Z AUTO 00000KT 10SM CLR 02/01 A3016 RMK AO1
KMER 171235Z AUTO 00000KT 9SM CLR 01/00 A3016 RMK AO1
KMER 171215Z AUTO 00000KT 10SM CLR 01/00 A3016 RMK AO1
KMER 171155Z AUTO 00000KT 10SM CLR 02/02 A3017 RMK AO1
KMER 171135Z AUTO 00000KT 10SM CLR 02/01 A3017 RMK AO1
KMER 171115Z AUTO 02003KT 9SM CLR 01/00 A3018 RMK AO1
KMER 171055Z AUTO 00000KT 10SM CLR 02/00 A3019 RMK AO1
KMER 171035Z AUTO 00000KT 10SM CLR 03/01 A3019 RMK AO1
KMER 171015Z AUTO 00000KT 10SM CLR 03/01 A3020 RMK AO1
KMER 170955Z AUTO 00000KT 10SM CLR 03/01 A3020 RMK AO1
KMER 170935Z AUTO 00000KT 9SM CLR 02/01 A3020 RMK AO1
KMER 170915Z AUTO 00000KT 10SM CLR 02/01 A3019 RMK AO1
KMER 170855Z AUTO 00000KT 10SM CLR 02/01 A3019 RMK AO1
KMER 170835Z AUTO 00000KT 10SM CLR 03/01 A3019 RMK AO1
KMER 170815Z AUTO 00000KT 10SM CLR 03/01 A3019 RMK AO1